sensor_id;sensor_type;location;lat;lon;timestamp;temperature;humidity
49224;DHT22;35050;51.316;5.994;2023-11-18T00:01:55;5.90;99.90
49224;DHT22;35050;51.316;5.994;2023-11-18T00:04:21;6.00;99.90
49224;DHT22;35050;51.316;5.994;2023-11-18T00:06:47;6.00;99.90
49224;DHT22;35050;51.316;5.994;2023-11-18T00:09:13;6.00;99.90
49224;DHT22;35050;51.316;5.994;2023-11-18T00:11:40;6.00;99.90
49224;DHT22;35050;51.316;5.994;2023-11-18T00:14:06;6.00;99.90
49224;DHT22;35050;51.316;5.994;2023-11-18T00:16:32;6.10;99.90
49224;DHT22;35050;51.316;5.994;2023-11-18T00:18:59;6.10;99.90
49224;DHT22;35050;51.316;5.994;2023-11-18T00:21:25;6.10;99.90
49224;DHT22;35050;51.316;5.994;2023-11-18T00:23:51;6.10;99.90
49224;DHT22;35050;51.316;5.994;2023-11-18T00:26:17;6.10;99.90
49224;DHT22;35050;51.316;5.994;2023-11-18T00:28:42;6.10;99.90
49224;DHT22;35050;51.316;5.994;2023-11-18T00:31:08;6.10;99.90
49224;DHT22;35050;51.316;5.994;2023-11-18T00:33:33;6.00;99.90
49224;DHT22;35050;51.316;5.994;2023-11-18T00:35:59;6.10;99.90
49224;DHT22;35050;51.316;5.994;2023-11-18T00:38:28;6.10;99.90
49224;DHT22;35050;51.316;5.994;2023-11-18T00:40:53;6.10;99.90
49224;DHT22;35050;51.316;5.994;2023-11-18T00:43:19;6.00;99.90
49224;DHT22;35050;51.316;5.994;2023-11-18T00:45:44;6.10;99.90
49224;DHT22;35050;51.316;5.994;2023-11-18T00:48:10;6.00;99.90
49224;DHT22;35050;51.316;5.994;2023-11-18T00:50:36;6.00;99.90
49224;DHT22;35050;51.316;5.994;2023-11-18T00:53:01;6.10;99.90
49224;DHT22;35050;51.316;5.994;2023-11-18T00:55:27;6.10;99.90
49224;DHT22;35050;51.316;5.994;2023-11-18T00:57:53;6.00;99.90
49224;DHT22;35050;51.316;5.994;2023-11-18T01:00:19;5.90;99.90
49224;DHT22;35050;51.316;5.994;2023-11-18T01:02:48;5.90;99.90
49224;DHT22;35050;51.316;5.994;2023-11-18T01:05:15;5.90;99.90
49224;DHT22;35050;51.316;5.994;2023-11-18T01:07:41;5.80;99.90
49224;DHT22;35050;51.316;5.994;2023-11-18T01:10:07;5.80;99.90
49224;DHT22;35050;51.316;5.994;2023-11-18T01:12:35;5.80;99.90
49224;DHT22;35050;51.316;5.994;2023-11-18T01:15:01;5.80;99.90
49224;DHT22;35050;51.316;5.994;2023-11-18T01:17:28;5.70;99.90
49224;DHT22;35050;51.316;5.994;2023-11-18T01:19:55;5.70;99.90
49224;DHT22;35050;51.316;5.994;2023-11-18T01:22:20;5.80;99.90
49224;DHT22;35050;51.316;5.994;2023-11-18T01:24:47;5.70;99.90
49224;DHT22;35050;51.316;5.994;2023-11-18T01:27:13;5.70;99.90
49224;DHT22;35050;51.316;5.994;2023-11-18T01:29:39;5.70;99.90
49224;DHT22;35050;51.316;5.994;2023-11-18T01:32:06;5.70;99.90
49224;DHT22;35050;51.316;5.994;2023-11-18T01:34:35;5.70;99.90
49224;DHT22;35050;51.316;5.994;2023-11-18T01:37:01;5.80;99.90
49224;DHT22;35050;51.316;5.994;2023-11-18T01:39:27;5.80;99.90
49224;DHT22;35050;51.316;5.994;2023-11-18T01:41:53;5.90;99.90
49224;DHT22;35050;51.316;5.994;2023-11-18T01:44:18;5.80;99.90
49224;DHT22;35050;51.316;5.994;2023-11-18T01:46:49;5.80;99.90
49224;DHT22;35050;51.316;5.994;2023-11-18T01:49:15;5.70;99.90
49224;DHT22;35050;51.316;5.994;2023-11-18T01:51:44;5.80;99.90
49224;DHT22;35050;51.316;5.994;2023-11-18T01:54:12;5.80;99.90
49224;DHT22;35050;51.316;5.994;2023-11-18T01:56:43;5.90;99.90
49224;DHT22;35050;51.316;5.994;2023-11-18T01:59:09;5.90;99.90
49224;DHT22;35050;51.316;5.994;2023-11-18T02:01:36;5.90;99.90
49224;DHT22;35050;51.316;5.994;2023-11-18T02:04:03;5.90;99.90
49224;DHT22;35050;51.316;5.994;2023-11-18T02:06:31;6.00;99.90
49224;DHT22;35050;51.316;5.994;2023-11-18T02:08:56;6.00;99.90
49224;DHT22;35050;51.316;5.994;2023-11-18T02:11:31;6.00;99.90
49224;DHT22;35050;51.316;5.994;2023-11-18T02:14:00;6.00;99.90
49224;DHT22;35050;51.316;5.994;2023-11-18T02:16:31;6.00;99.90
49224;DHT22;35050;51.316;5.994;2023-11-18T02:18:57;6.00;99.90
49224;DHT22;35050;51.316;5.994;2023-11-18T02:21:24;6.10;99.90
49224;DHT22;35050;51.316;5.994;2023-11-18T02:23:52;6.10;99.90
49224;DHT22;35050;51.316;5.994;2023-11-18T02:26:22;6.10;99.90
49224;DHT22;35050;51.316;5.994;2023-11-18T02:28:48;6.10;99.90
49224;DHT22;35050;51.316;5.994;2023-11-18T02:31:20;6.00;99.90
49224;DHT22;35050;51.316;5.994;2023-11-18T02:34:12;6.00;99.90
49224;DHT22;35050;51.316;5.994;2023-11-18T02:36:46;6.10;99.90
49224;DHT22;35050;51.316;5.994;2023-11-18T02:39:21;6.10;99.90
49224;DHT22;35050;51.316;5.994;2023-11-18T02:41:51;6.00;99.90
49224;DHT22;35050;51.316;5.994;2023-11-18T02:44:18;6.10;99.90
49224;DHT22;35050;51.316;5.994;2023-11-18T02:46:46;6.10;99.90
49224;DHT22;35050;51.316;5.994;2023-11-18T02:49:11;6.20;99.90
49224;DHT22;35050;51.316;5.994;2023-11-18T02:51:37;6.20;99.90
49224;DHT22;35050;51.316;5.994;2023-11-18T02:54:06;6.20;99.90
49224;DHT22;35050;51.316;5.994;2023-11-18T02:56:38;6.20;99.90
49224;DHT22;35050;51.316;5.994;2023-11-18T02:59:04;6.30;99.90
49224;DHT22;35050;51.316;5.994;2023-11-18T03:01:33;6.40;99.90
49224;DHT22;35050;51.316;5.994;2023-11-18T03:04:04;6.40;99.90
49224;DHT22;35050;51.316;5.994;2023-11-18T03:06:30;6.30;99.90
49224;DHT22;35050;51.316;5.994;2023-11-18T03:08:58;6.40;99.90
49224;DHT22;35050;51.316;5.994;2023-11-18T03:11:23;6.30;99.90
49224;DHT22;35050;51.316;5.994;2023-11-18T03:13:49;6.30;99.90
49224;DHT22;35050;51.316;5.994;2023-11-18T03:16:15;6.40;99.90
49224;DHT22;35050;51.316;5.994;2023-11-18T03:18:43;6.40;99.90
49224;DHT22;35050;51.316;5.994;2023-11-18T03:21:12;6.40;99.90
49224;DHT22;35050;51.316;5.994;2023-11-18T03:23:39;6.40;99.90
49224;DHT22;35050;51.316;5.994;2023-11-18T03:26:06;6.40;99.90
49224;DHT22;35050;51.316;5.994;2023-11-18T03:28:33;6.40;99.90
49224;DHT22;35050;51.316;5.994;2023-11-18T03:30:59;6.30;99.90
49224;DHT22;35050;51.316;5.994;2023-11-18T03:33:25;6.40;99.90
49224;DHT22;35050;51.316;5.994;2023-11-18T03:35:50;6.40;99.90
49224;DHT22;35050;51.316;5.994;2023-11-18T03:38:16;6.30;99.90
49224;DHT22;35050;51.316;5.994;2023-11-18T03:40:45;6.30;99.90
49224;DHT22;35050;51.316;5.994;2023-11-18T03:43:11;6.20;99.90
49224;DHT22;35050;51.316;5.994;2023-11-18T03:45:39;6.20;99.90
49224;DHT22;35050;51.316;5.994;2023-11-18T03:48:05;6.20;99.90
49224;DHT22;35050;51.316;5.994;2023-11-18T03:50:32;6.20;99.90
49224;DHT22;35050;51.316;5.994;2023-11-18T03:52:57;6.20;99.90
49224;DHT22;35050;51.316;5.994;2023-11-18T03:55:24;6.20;99.90
49224;DHT22;35050;51.316;5.994;2023-11-18T03:57:51;6.10;99.90
49224;DHT22;35050;51.316;5.994;2023-11-18T04:00:17;6.20;99.90
49224;DHT22;35050;51.316;5.994;2023-11-18T04:02:48;6.20;99.90
49224;DHT22;35050;51.316;5.994;2023-11-18T04:05:13;6.20;99.90
49224;DHT22;35050;51.316;5.994;2023-11-18T04:07:39;6.30;99.90
49224;DHT22;35050;51.316;5.994;2023-11-18T04:10:08;6.30;99.90
49224;DHT22;35050;51.316;5.994;2023-11-18T04:12:38;6.30;99.90
49224;DHT22;35050;51.316;5.994;2023-11-18T04:15:05;6.20;99.90
49224;DHT22;35050;51.316;5.994;2023-11-18T04:17:31;6.10;99.90
49224;DHT22;35050;51.316;5.994;2023-11-18T04:19:57;6.10;99.90
49224;DHT22;35050;51.316;5.994;2023-11-18T04:22:23;6.10;99.90
49224;DHT22;35050;51.316;5.994;2023-11-18T04:24:49;6.20;99.90
49224;DHT22;35050;51.316;5.994;2023-11-18T04:27:15;6.20;99.90
49224;DHT22;35050;51.316;5.994;2023-11-18T04:29:41;6.20;99.90
49224;DHT22;35050;51.316;5.994;2023-11-18T04:32:07;6.10;99.90
49224;DHT22;35050;51.316;5.994;2023-11-18T04:34:36;6.10;99.90
49224;DHT22;35050;51.316;5.994;2023-11-18T04:37:05;6.30;99.90
49224;DHT22;35050;51.316;5.994;2023-11-18T04:39:34;6.30;99.90
49224;DHT22;35050;51.316;5.994;2023-11-18T04:42:00;6.40;99.90
49224;DHT22;35050;51.316;5.994;2023-11-18T04:44:27;6.30;99.90
49224;DHT22;35050;51.316;5.994;2023-11-18T04:46:52;6.20;99.90
49224;DHT22;35050;51.316;5.994;2023-11-18T04:49:18;6.20;99.90
49224;DHT22;35050;51.316;5.994;2023-11-18T04:51:44;6.20;99.90
49224;DHT22;35050;51.316;5.994;2023-11-18T04:54:10;6.20;99.90
49224;DHT22;35050;51.316;5.994;2023-11-18T04:56:36;6.20;99.90
49224;DHT22;35050;51.316;5.994;2023-11-18T04:59:05;6.30;99.90
49224;DHT22;35050;51.316;5.994;2023-11-18T05:01:31;6.40;99.90
49224;DHT22;35050;51.316;5.994;2023-11-18T05:03:57;6.30;99.90
49224;DHT22;35050;51.316;5.994;2023-11-18T05:06:23;6.30;99.90
49224;DHT22;35050;51.316;5.994;2023-11-18T05:08:48;6.00;99.90
49224;DHT22;35050;51.316;5.994;2023-11-18T05:11:15;6.20;99.90
49224;DHT22;35050;51.316;5.994;2023-11-18T05:13:41;6.10;99.90
49224;DHT22;35050;51.316;5.994;2023-11-18T05:16:07;6.30;99.90
49224;DHT22;35050;51.316;5.994;2023-11-18T05:18:33;6.10;99.90
49224;DHT22;35050;51.316;5.994;2023-11-18T05:21:02;6.10;99.90
49224;DHT22;35050;51.316;5.994;2023-11-18T05:23:31;6.10;99.90
49224;DHT22;35050;51.316;5.994;2023-11-18T05:25:57;6.20;99.90
49224;DHT22;35050;51.316;5.994;2023-11-18T05:28:23;6.20;99.90
49224;DHT22;35050;51.316;5.994;2023-11-18T05:30:50;6.30;99.90
49224;DHT22;35050;51.316;5.994;2023-11-18T05:33:16;6.20;99.90
49224;DHT22;35050;51.316;5.994;2023-11-18T05:35:44;6.10;99.90
49224;DHT22;35050;51.316;5.994;2023-11-18T05:38:18;6.20;99.90
49224;DHT22;35050;51.316;5.994;2023-11-18T05:40:47;6.40;99.90
49224;DHT22;35050;51.316;5.994;2023-11-18T05:43:27;6.40;99.90
49224;DHT22;35050;51.316;5.994;2023-11-18T05:45:57;6.50;99.90
49224;DHT22;35050;51.316;5.994;2023-11-18T05:48:42;6.60;99.90
49224;DHT22;35050;51.316;5.994;2023-11-18T05:51:08;6.50;99.90
49224;DHT22;35050;51.316;5.994;2023-11-18T05:53:39;6.50;99.90
49224;DHT22;35050;51.316;5.994;2023-11-18T05:56:05;6.40;99.90
49224;DHT22;35050;51.316;5.994;2023-11-18T05:58:32;6.40;99.90
49224;DHT22;35050;51.316;5.994;2023-11-18T06:00:58;6.30;99.90
49224;DHT22;35050;51.316;5.994;2023-11-18T06:03:24;6.30;99.90
49224;DHT22;35050;51.316;5.994;2023-11-18T06:05:50;6.20;99.90
49224;DHT22;35050;51.316;5.994;2023-11-18T06:08:16;6.30;99.90
49224;DHT22;35050;51.316;5.994;2023-11-18T06:10:42;6.40;99.90
49224;DHT22;35050;51.316;5.994;2023-11-18T06:13:10;6.30;99.90
49224;DHT22;35050;51.316;5.994;2023-11-18T06:15:38;6.20;99.90
49224;DHT22;35050;51.316;5.994;2023-11-18T06:18:04;6.20;99.90
49224;DHT22;35050;51.316;5.994;2023-11-18T06:20:31;6.30;99.90
49224;DHT22;35050;51.316;5.994;2023-11-18T06:22:58;6.30;99.90
49224;DHT22;35050;51.316;5.994;2023-11-18T06:25:24;6.30;99.90
49224;DHT22;35050;51.316;5.994;2023-11-18T06:27:51;6.30;99.90
49224;DHT22;35050;51.316;5.994;2023-11-18T06:30:18;6.40;99.90
49224;DHT22;35050;51.316;5.994;2023-11-18T06:32:45;6.30;99.90
49224;DHT22;35050;51.316;5.994;2023-11-18T06:35:12;6.30;99.90
49224;DHT22;35050;51.316;5.994;2023-11-18T06:37:40;6.30;99.90
49224;DHT22;35050;51.316;5.994;2023-11-18T06:40:06;6.40;99.90
49224;DHT22;35050;51.316;5.994;2023-11-18T06:42:44;6.40;99.90
49224;DHT22;35050;51.316;5.994;2023-11-18T06:45:14;6.50;99.90
49224;DHT22;35050;51.316;5.994;2023-11-18T06:47:40;6.40;99.90
49224;DHT22;35050;51.316;5.994;2023-11-18T06:50:10;6.40;99.90
49224;DHT22;35050;51.316;5.994;2023-11-18T06:52:42;6.60;99.90
49224;DHT22;35050;51.316;5.994;2023-11-18T06:55:08;6.70;99.90
49224;DHT22;35050;51.316;5.994;2023-11-18T06:57:35;6.60;99.90
49224;DHT22;35050;51.316;5.994;2023-11-18T07:00:01;6.70;99.90
49224;DHT22;35050;51.316;5.994;2023-11-18T07:02:32;6.70;99.90
49224;DHT22;35050;51.316;5.994;2023-11-18T07:04:58;6.60;99.90
49224;DHT22;35050;51.316;5.994;2023-11-18T07:07:24;6.60;99.90
49224;DHT22;35050;51.316;5.994;2023-11-18T07:09:49;6.60;99.90
49224;DHT22;35050;51.316;5.994;2023-11-18T07:12:15;6.60;99.90
49224;DHT22;35050;51.316;5.994;2023-11-18T07:14:40;6.60;99.90
49224;DHT22;35050;51.316;5.994;2023-11-18T07:17:06;6.60;99.90
49224;DHT22;35050;51.316;5.994;2023-11-18T07:19:33;6.60;99.90
49224;DHT22;35050;51.316;5.994;2023-11-18T07:21:59;6.60;99.90
49224;DHT22;35050;51.316;5.994;2023-11-18T07:24:25;6.50;99.90
49224;DHT22;35050;51.316;5.994;2023-11-18T07:26:51;6.70;99.90
49224;DHT22;35050;51.316;5.994;2023-11-18T07:29:17;6.60;99.90
49224;DHT22;35050;51.316;5.994;2023-11-18T07:31:42;6.70;99.90
49224;DHT22;35050;51.316;5.994;2023-11-18T07:34:08;6.50;99.90
49224;DHT22;35050;51.316;5.994;2023-11-18T07:36:35;6.70;99.90
49224;DHT22;35050;51.316;5.994;2023-11-18T07:39:00;6.90;99.90
49224;DHT22;35050;51.316;5.994;2023-11-18T07:41:31;6.80;99.90
49224;DHT22;35050;51.316;5.994;2023-11-18T07:43:56;6.70;99.90
49224;DHT22;35050;51.316;5.994;2023-11-18T07:46:22;6.70;99.90
49224;DHT22;35050;51.316;5.994;2023-11-18T07:48:49;6.70;99.90
49224;DHT22;35050;51.316;5.994;2023-11-18T07:51:15;6.60;99.90
49224;DHT22;35050;51.316;5.994;2023-11-18T07:53:41;6.70;99.90
49224;DHT22;35050;51.316;5.994;2023-11-18T07:56:07;6.90;99.90
49224;DHT22;35050;51.316;5.994;2023-11-18T07:58:36;6.70;99.90
49224;DHT22;35050;51.316;5.994;2023-11-18T08:01:03;6.80;99.90
49224;DHT22;35050;51.316;5.994;2023-11-18T08:03:33;6.70;99.90
49224;DHT22;35050;51.316;5.994;2023-11-18T08:05:59;6.70;99.90
49224;DHT22;35050;51.316;5.994;2023-11-18T08:08:25;6.80;99.90
49224;DHT22;35050;51.316;5.994;2023-11-18T08:10:51;6.80;99.90
49224;DHT22;35050;51.316;5.994;2023-11-18T08:13:16;7.00;99.90
49224;DHT22;35050;51.316;5.994;2023-11-18T08:15:42;6.90;99.90
49224;DHT22;35050;51.316;5.994;2023-11-18T08:18:11;7.00;99.90
49224;DHT22;35050;51.316;5.994;2023-11-18T08:20:37;6.90;99.90
49224;DHT22;35050;51.316;5.994;2023-11-18T08:23:03;6.90;99.90
49224;DHT22;35050;51.316;5.994;2023-11-18T08:25:32;6.90;99.90
49224;DHT22;35050;51.316;5.994;2023-11-18T08:28:01;6.90;99.90
49224;DHT22;35050;51.316;5.994;2023-11-18T08:30:27;7.00;99.90
49224;DHT22;35050;51.316;5.994;2023-11-18T08:32:53;7.10;99.90
49224;DHT22;35050;51.316;5.994;2023-11-18T08:35:18;7.00;99.90
49224;DHT22;35050;51.316;5.994;2023-11-18T08:37:46;7.10;99.90
49224;DHT22;35050;51.316;5.994;2023-11-18T08:40:13;7.20;99.90
49224;DHT22;35050;51.316;5.994;2023-11-18T08:42:49;7.20;99.90
49224;DHT22;35050;51.316;5.994;2023-11-18T08:45:20;7.20;99.90
49224;DHT22;35050;51.316;5.994;2023-11-18T08:47:53;7.10;99.90
49224;DHT22;35050;51.316;5.994;2023-11-18T08:50:19;7.30;99.90
49224;DHT22;35050;51.316;5.994;2023-11-18T08:52:50;7.30;99.90
49224;DHT22;35050;51.316;5.994;2023-11-18T08:55:18;7.40;99.90
49224;DHT22;35050;51.316;5.994;2023-11-18T08:57:48;7.30;99.90
49224;DHT22;35050;51.316;5.994;2023-11-18T09:00:30;7.40;99.90
49224;DHT22;35050;51.316;5.994;2023-11-18T09:03:12;7.30;99.90
49224;DHT22;35050;51.316;5.994;2023-11-18T09:05:57;7.40;99.90
49224;DHT22;35050;51.316;5.994;2023-11-18T09:08:28;7.40;99.90
49224;DHT22;35050;51.316;5.994;2023-11-18T09:10:56;7.40;99.90
49224;DHT22;35050;51.316;5.994;2023-11-18T09:13:23;7.30;99.90
49224;DHT22;35050;51.316;5.994;2023-11-18T09:15:58;7.50;99.90
49224;DHT22;35050;51.316;5.994;2023-11-18T09:18:26;7.50;99.90
49224;DHT22;35050;51.316;5.994;2023-11-18T09:20:53;7.40;99.90
49224;DHT22;35050;51.316;5.994;2023-11-18T09:23:21;7.50;99.90
49224;DHT22;35050;51.316;5.994;2023-11-18T09:25:48;7.50;99.90
49224;DHT22;35050;51.316;5.994;2023-11-18T09:28:15;7.50;99.90
49224;DHT22;35050;51.316;5.994;2023-11-18T09:30:46;7.60;99.90
49224;DHT22;35050;51.316;5.994;2023-11-18T09:33:25;7.70;99.90
49224;DHT22;35050;51.316;5.994;2023-11-18T09:36:05;7.60;99.90
49224;DHT22;35050;51.316;5.994;2023-11-18T09:38:40;7.50;99.90
49224;DHT22;35050;51.316;5.994;2023-11-18T09:41:08;7.60;99.90
49224;DHT22;35050;51.316;5.994;2023-11-18T09:43:44;7.70;99.90
49224;DHT22;35050;51.316;5.994;2023-11-18T09:46:12;7.70;99.90
49224;DHT22;35050;51.316;5.994;2023-11-18T09:48:51;7.60;99.90
49224;DHT22;35050;51.316;5.994;2023-11-18T09:51:26;7.70;99.90
49224;DHT22;35050;51.316;5.994;2023-11-18T09:54:01;7.70;99.90
49224;DHT22;35050;51.316;5.994;2023-11-18T09:56:49;7.70;99.90
49224;DHT22;35050;51.316;5.994;2023-11-18T09:59:32;7.60;99.90
49224;DHT22;35050;51.316;5.994;2023-11-18T10:02:03;7.60;99.90
49224;DHT22;35050;51.316;5.994;2023-11-18T10:04:37;7.70;99.90
49224;DHT22;35050;51.316;5.994;2023-11-18T10:07:07;7.90;99.90
49224;DHT22;35050;51.316;5.994;2023-11-18T10:09:35;7.90;99.90
49224;DHT22;35050;51.316;5.994;2023-11-18T10:12:05;7.80;99.90
49224;DHT22;35050;51.316;5.994;2023-11-18T10:14:36;7.80;99.90
49224;DHT22;35050;51.316;5.994;2023-11-18T10:17:05;7.80;99.90
49224;DHT22;35050;51.316;5.994;2023-11-18T10:22:27;7.90;99.90
49224;DHT22;35050;51.316;5.994;2023-11-18T10:24:53;7.90;99.90
49224;DHT22;35050;51.316;5.994;2023-11-18T10:27:26;8.00;99.90
49224;DHT22;35050;51.316;5.994;2023-11-18T10:29:56;7.90;99.90
49224;DHT22;35050;51.316;5.994;2023-11-18T10:32:22;8.00;99.90
49224;DHT22;35050;51.316;5.994;2023-11-18T10:34:56;8.00;99.90
49224;DHT22;35050;51.316;5.994;2023-11-18T10:37:26;8.00;99.90
49224;DHT22;35050;51.316;5.994;2023-11-18T10:39:53;8.00;99.90
49224;DHT22;35050;51.316;5.994;2023-11-18T10:42:19;8.00;99.90
49224;DHT22;35050;51.316;5.994;2023-11-18T10:44:58;8.20;99.90
49224;DHT22;35050;51.316;5.994;2023-11-18T10:47:27;8.10;99.90
49224;DHT22;35050;51.316;5.994;2023-11-18T10:49:54;8.00;99.90
49224;DHT22;35050;51.316;5.994;2023-11-18T10:52:24;8.00;99.90
49224;DHT22;35050;51.316;5.994;2023-11-18T10:55:00;8.00;99.90
49224;DHT22;35050;51.316;5.994;2023-11-18T10:57:32;8.00;99.90
49224;DHT22;35050;51.316;5.994;2023-11-18T11:00:05;8.00;99.90
49224;DHT22;35050;51.316;5.994;2023-11-18T11:02:39;8.00;99.90
49224;DHT22;35050;51.316;5.994;2023-11-18T11:05:07;8.00;99.90
49224;DHT22;35050;51.316;5.994;2023-11-18T11:07:33;8.10;99.90
49224;DHT22;35050;51.316;5.994;2023-11-18T11:10:01;8.10;99.90
49224;DHT22;35050;51.316;5.994;2023-11-18T11:12:35;8.10;99.90
49224;DHT22;35050;51.316;5.994;2023-11-18T11:15:08;8.10;99.90
49224;DHT22;35050;51.316;5.994;2023-11-18T11:17:39;8.10;99.90
49224;DHT22;35050;51.316;5.994;2023-11-18T11:20:13;8.20;99.90
49224;DHT22;35050;51.316;5.994;2023-11-18T11:31:38;8.30;99.90
49224;DHT22;35050;51.316;5.994;2023-11-18T11:34:18;8.30;99.90
49224;DHT22;35050;51.316;5.994;2023-11-18T11:36:49;8.30;99.90
49224;DHT22;35050;51.316;5.994;2023-11-18T11:39:17;8.40;99.90
49224;DHT22;35050;51.316;5.994;2023-11-18T11:41:50;8.30;99.90
49224;DHT22;35050;51.316;5.994;2023-11-18T11:44:16;8.40;99.90
49224;DHT22;35050;51.316;5.994;2023-11-18T11:46:45;8.30;99.90
49224;DHT22;35050;51.316;5.994;2023-11-18T11:49:20;8.40;99.90
49224;DHT22;35050;51.316;5.994;2023-11-18T11:51:57;8.40;99.90
49224;DHT22;35050;51.316;5.994;2023-11-18T11:54:27;8.50;99.90
49224;DHT22;35050;51.316;5.994;2023-11-18T11:56:56;8.50;99.90
49224;DHT22;35050;51.316;5.994;2023-11-18T12:02:15;8.40;99.90
49224;DHT22;35050;51.316;5.994;2023-11-18T12:04:49;8.50;99.90
49224;DHT22;35050;51.316;5.994;2023-11-18T12:07:19;8.40;99.90
49224;DHT22;35050;51.316;5.994;2023-11-18T12:09:49;8.40;99.90
49224;DHT22;35050;51.316;5.994;2023-11-18T12:12:22;8.40;99.90
49224;DHT22;35050;51.316;5.994;2023-11-18T12:14:56;8.50;99.90
49224;DHT22;35050;51.316;5.994;2023-11-18T12:17:23;8.50;99.90
49224;DHT22;35050;51.316;5.994;2023-11-18T12:19:50;8.50;99.90
49224;DHT22;35050;51.316;5.994;2023-11-18T12:22:25;8.50;99.90
49224;DHT22;35050;51.316;5.994;2023-11-18T12:32:59;8.40;99.90
49224;DHT22;35050;51.316;5.994;2023-11-18T12:35:27;8.40;99.90
49224;DHT22;35050;51.316;5.994;2023-11-18T12:40:55;8.40;99.90
49224;DHT22;35050;51.316;5.994;2023-11-18T12:43:47;8.50;99.90
49224;DHT22;35050;51.316;5.994;2023-11-18T12:49:14;8.40;99.90
49224;DHT22;35050;51.316;5.994;2023-11-18T13:04:34;8.40;99.90
49224;DHT22;35050;51.316;5.994;2023-11-18T13:07:00;8.40;99.90
49224;DHT22;35050;51.316;5.994;2023-11-18T13:09:27;8.50;99.90
49224;DHT22;35050;51.316;5.994;2023-11-18T13:27:00;8.50;99.90
49224;DHT22;35050;51.316;5.994;2023-11-18T13:29:30;8.40;99.90
49224;DHT22;35050;51.316;5.994;2023-11-18T13:31:56;8.40;99.90
49224;DHT22;35050;51.316;5.994;2023-11-18T13:34:24;8.40;99.90
49224;DHT22;35050;51.316;5.994;2023-11-18T13:36:50;8.30;99.90
49224;DHT22;35050;51.316;5.994;2023-11-18T13:39:20;8.30;99.90
49224;DHT22;35050;51.316;5.994;2023-11-18T13:41:50;8.40;99.90
49224;DHT22;35050;51.316;5.994;2023-11-18T13:44:34;8.30;99.90
49224;DHT22;35050;51.316;5.994;2023-11-18T13:47:01;8.30;99.90
49224;DHT22;35050;51.316;5.994;2023-11-18T13:49:28;8.30;99.90
49224;DHT22;35050;51.316;5.994;2023-11-18T13:51:55;8.30;99.90
49224;DHT22;35050;51.316;5.994;2023-11-18T13:54:22;8.30;99.90
49224;DHT22;35050;51.316;5.994;2023-11-18T13:56:49;8.30;99.90
49224;DHT22;35050;51.316;5.994;2023-11-18T13:59:15;8.30;99.90
49224;DHT22;35050;51.316;5.994;2023-11-18T14:01:41;8.30;99.90
49224;DHT22;35050;51.316;5.994;2023-11-18T14:04:07;8.30;99.90
49224;DHT22;35050;51.316;5.994;2023-11-18T14:06:35;8.30;99.90
49224;DHT22;35050;51.316;5.994;2023-11-18T14:09:02;8.70;99.90
49224;DHT22;35050;51.316;5.994;2023-11-18T14:11:30;8.50;99.90
49224;DHT22;35050;51.316;5.994;2023-11-18T14:13:56;8.40;99.90
49224;DHT22;35050;51.316;5.994;2023-11-18T14:16:23;8.40;99.90
49224;DHT22;35050;51.316;5.994;2023-11-18T14:18:49;8.40;99.90
49224;DHT22;35050;51.316;5.994;2023-11-18T14:21:15;8.30;99.90
49224;DHT22;35050;51.316;5.994;2023-11-18T14:23:41;8.30;99.90
49224;DHT22;35050;51.316;5.994;2023-11-18T14:26:06;8.30;99.90
49224;DHT22;35050;51.316;5.994;2023-11-18T14:28:36;8.30;99.90
49224;DHT22;35050;51.316;5.994;2023-11-18T14:31:03;8.30;99.90
49224;DHT22;35050;51.316;5.994;2023-11-18T14:33:30;8.30;99.90
49224;DHT22;35050;51.316;5.994;2023-11-18T14:36:01;8.30;99.90
49224;DHT22;35050;51.316;5.994;2023-11-18T14:38:27;8.20;99.90
49224;DHT22;35050;51.316;5.994;2023-11-18T14:40:53;8.20;99.90
49224;DHT22;35050;51.316;5.994;2023-11-18T14:43:19;8.10;99.90
49224;DHT22;35050;51.316;5.994;2023-11-18T14:45:45;8.20;99.90
49224;DHT22;35050;51.316;5.994;2023-11-18T14:48:10;8.20;99.90
49224;DHT22;35050;51.316;5.994;2023-11-18T14:50:36;8.20;99.90
49224;DHT22;35050;51.316;5.994;2023-11-18T14:53:04;8.20;99.90
49224;DHT22;35050;51.316;5.994;2023-11-18T14:55:32;8.20;99.90
49224;DHT22;35050;51.316;5.994;2023-11-18T14:58:02;8.20;99.90
49224;DHT22;35050;51.316;5.994;2023-11-18T15:00:29;8.20;99.90
49224;DHT22;35050;51.316;5.994;2023-11-18T15:02:58;8.30;99.90
49224;DHT22;35050;51.316;5.994;2023-11-18T15:05:24;8.30;99.90
49224;DHT22;35050;51.316;5.994;2023-11-18T15:07:53;8.30;99.90
49224;DHT22;35050;51.316;5.994;2023-11-18T15:10:21;8.30;99.90
49224;DHT22;35050;51.316;5.994;2023-11-18T15:12:48;8.40;99.90
49224;DHT22;35050;51.316;5.994;2023-11-18T15:15:21;8.30;99.90
49224;DHT22;35050;51.316;5.994;2023-11-18T15:17:47;8.20;99.90
49224;DHT22;35050;51.316;5.994;2023-11-18T15:20:16;8.30;99.90
49224;DHT22;35050;51.316;5.994;2023-11-18T15:22:44;8.30;99.90
49224;DHT22;35050;51.316;5.994;2023-11-18T15:25:10;8.30;99.90
49224;DHT22;35050;51.316;5.994;2023-11-18T15:27:41;8.30;99.90
49224;DHT22;35050;51.316;5.994;2023-11-18T15:30:08;8.20;99.90
49224;DHT22;35050;51.316;5.994;2023-11-18T15:32:38;8.30;99.90
49224;DHT22;35050;51.316;5.994;2023-11-18T15:35:04;8.30;99.90
49224;DHT22;35050;51.316;5.994;2023-11-18T15:37:37;8.30;99.90
49224;DHT22;35050;51.316;5.994;2023-11-18T15:40:10;8.30;99.90
49224;DHT22;35050;51.316;5.994;2023-11-18T15:42:46;8.30;99.90
49224;DHT22;35050;51.316;5.994;2023-11-18T15:45:23;8.30;99.90
49224;DHT22;35050;51.316;5.994;2023-11-18T15:47:53;8.30;99.90
49224;DHT22;35050;51.316;5.994;2023-11-18T15:50:19;8.30;99.90
49224;DHT22;35050;51.316;5.994;2023-11-18T15:52:48;8.40;99.90
49224;DHT22;35050;51.316;5.994;2023-11-18T15:55:14;8.40;99.90
49224;DHT22;35050;51.316;5.994;2023-11-18T15:57:44;8.40;99.90
49224;DHT22;35050;51.316;5.994;2023-11-18T16:00:13;8.40;99.90
49224;DHT22;35050;51.316;5.994;2023-11-18T16:02:46;8.40;99.90
49224;DHT22;35050;51.316;5.994;2023-11-18T16:05:13;8.40;99.90
49224;DHT22;35050;51.316;5.994;2023-11-18T16:07:42;8.40;99.90
49224;DHT22;35050;51.316;5.994;2023-11-18T16:10:08;8.50;99.90
49224;DHT22;35050;51.316;5.994;2023-11-18T16:12:34;8.50;99.90
49224;DHT22;35050;51.316;5.994;2023-11-18T16:15:00;8.50;99.90
49224;DHT22;35050;51.316;5.994;2023-11-18T16:17:25;8.50;99.90
49224;DHT22;35050;51.316;5.994;2023-11-18T16:19:52;8.50;99.90
49224;DHT22;35050;51.316;5.994;2023-11-18T16:22:18;8.50;99.90
49224;DHT22;35050;51.316;5.994;2023-11-18T16:24:43;8.50;99.90
49224;DHT22;35050;51.316;5.994;2023-11-18T16:27:09;8.60;99.90
49224;DHT22;35050;51.316;5.994;2023-11-18T16:29:35;8.60;99.90
49224;DHT22;35050;51.316;5.994;2023-11-18T16:32:00;8.60;99.90
49224;DHT22;35050;51.316;5.994;2023-11-18T16:34:26;8.60;99.90
49224;DHT22;35050;51.316;5.994;2023-11-18T16:36:52;8.60;99.90
49224;DHT22;35050;51.316;5.994;2023-11-18T16:39:24;8.70;99.90
49224;DHT22;35050;51.316;5.994;2023-11-18T16:41:51;8.60;99.90
49224;DHT22;35050;51.316;5.994;2023-11-18T16:44:17;8.70;99.90
49224;DHT22;35050;51.316;5.994;2023-11-18T16:46:43;8.70;99.90
49224;DHT22;35050;51.316;5.994;2023-11-18T16:49:11;8.70;99.90